sensor_id;sensor_type;location;lat;lon;timestamp;temperature;humidity
11221;DHT22;8517;53.546;10.104;2023-03-20T00:02:17;12.70;99.90
11221;DHT22;8517;53.546;10.104;2023-03-20T00:04:44;12.70;99.90
11221;DHT22;8517;53.546;10.104;2023-03-20T00:07:11;12.70;99.90
11221;DHT22;8517;53.546;10.104;2023-03-20T00:09:39;12.70;99.90
11221;DHT22;8517;53.546;10.104;2023-03-20T00:12:09;12.60;99.90
11221;DHT22;8517;53.546;10.104;2023-03-20T00:14:40;12.60;99.90
11221;DHT22;8517;53.546;10.104;2023-03-20T00:17:09;12.60;99.90
11221;DHT22;8517;53.546;10.104;2023-03-20T00:19:36;12.60;99.90
11221;DHT22;8517;53.546;10.104;2023-03-20T00:22:03;12.60;99.90
11221;DHT22;8517;53.546;10.104;2023-03-20T00:24:30;12.50;99.90
11221;DHT22;8517;53.546;10.104;2023-03-20T00:26:57;12.50;99.90
11221;DHT22;8517;53.546;10.104;2023-03-20T00:29:27;12.50;99.90
11221;DHT22;8517;53.546;10.104;2023-03-20T00:31:56;12.50;99.90
11221;DHT22;8517;53.546;10.104;2023-03-20T00:34:25;12.50;99.90
11221;DHT22;8517;53.546;10.104;2023-03-20T00:36:54;12.50;99.90
11221;DHT22;8517;53.546;10.104;2023-03-20T00:39:22;12.50;99.90
11221;DHT22;8517;53.546;10.104;2023-03-20T00:41:51;12.50;99.90
11221;DHT22;8517;53.546;10.104;2023-03-20T00:44:21;12.50;99.90
11221;DHT22;8517;53.546;10.104;2023-03-20T00:46:53;12.50;99.90
11221;DHT22;8517;53.546;10.104;2023-03-20T00:49:23;12.50;99.90
11221;DHT22;8517;53.546;10.104;2023-03-20T00:51:51;12.40;99.90
11221;DHT22;8517;53.546;10.104;2023-03-20T00:54:18;12.40;99.90
11221;DHT22;8517;53.546;10.104;2023-03-20T00:56:48;12.40;99.90
11221;DHT22;8517;53.546;10.104;2023-03-20T00:59:19;12.40;99.90
11221;DHT22;8517;53.546;10.104;2023-03-20T01:01:47;12.40;99.90
11221;DHT22;8517;53.546;10.104;2023-03-20T01:04:17;12.40;99.90
11221;DHT22;8517;53.546;10.104;2023-03-20T01:06:44;12.30;99.90
11221;DHT22;8517;53.546;10.104;2023-03-20T01:09:11;12.30;99.90
11221;DHT22;8517;53.546;10.104;2023-03-20T01:11:39;12.30;99.90
11221;DHT22;8517;53.546;10.104;2023-03-20T01:14:12;12.30;99.90
11221;DHT22;8517;53.546;10.104;2023-03-20T01:16:40;12.30;99.90
11221;DHT22;8517;53.546;10.104;2023-03-20T01:19:10;12.30;99.90
11221;DHT22;8517;53.546;10.104;2023-03-20T01:21:39;12.30;99.90
11221;DHT22;8517;53.546;10.104;2023-03-20T01:24:06;12.30;99.90
11221;DHT22;8517;53.546;10.104;2023-03-20T01:26:34;12.30;99.90
11221;DHT22;8517;53.546;10.104;2023-03-20T01:29:02;12.30;99.90
11221;DHT22;8517;53.546;10.104;2023-03-20T01:31:29;12.40;99.90
11221;DHT22;8517;53.546;10.104;2023-03-20T01:33:56;12.40;99.90
11221;DHT22;8517;53.546;10.104;2023-03-20T01:36:23;12.40;99.90
11221;DHT22;8517;53.546;10.104;2023-03-20T01:38:54;12.40;99.90
11221;DHT22;8517;53.546;10.104;2023-03-20T01:41:23;12.40;99.90
11221;DHT22;8517;53.546;10.104;2023-03-20T01:43:51;12.40;99.90
11221;DHT22;8517;53.546;10.104;2023-03-20T01:46:22;12.40;99.90
11221;DHT22;8517;53.546;10.104;2023-03-20T01:49:00;12.40;99.90
11221;DHT22;8517;53.546;10.104;2023-03-20T01:51:28;12.40;99.90
11221;DHT22;8517;53.546;10.104;2023-03-20T01:54:01;12.40;99.90
11221;DHT22;8517;53.546;10.104;2023-03-20T01:56:32;12.40;99.90
11221;DHT22;8517;53.546;10.104;2023-03-20T01:59:04;12.40;99.90
11221;DHT22;8517;53.546;10.104;2023-03-20T02:01:33;12.40;99.90
11221;DHT22;8517;53.546;10.104;2023-03-20T02:04:01;12.40;99.90
11221;DHT22;8517;53.546;10.104;2023-03-20T02:06:28;12.40;99.90
11221;DHT22;8517;53.546;10.104;2023-03-20T02:08:55;12.40;99.90
11221;DHT22;8517;53.546;10.104;2023-03-20T02:11:24;12.40;99.90
11221;DHT22;8517;53.546;10.104;2023-03-20T02:13:54;12.50;99.90
11221;DHT22;8517;53.546;10.104;2023-03-20T02:16:22;12.50;99.90
11221;DHT22;8517;53.546;10.104;2023-03-20T02:18:50;12.40;99.90
11221;DHT22;8517;53.546;10.104;2023-03-20T02:21:46;12.50;99.90
11221;DHT22;8517;53.546;10.104;2023-03-20T02:24:44;12.40;99.90
11221;DHT22;8517;53.546;10.104;2023-03-20T02:27:24;12.50;99.90
11221;DHT22;8517;53.546;10.104;2023-03-20T02:30:34;12.40;99.90
11221;DHT22;8517;53.546;10.104;2023-03-20T02:39:40;12.40;99.90
11221;DHT22;8517;53.546;10.104;2023-03-20T02:42:14;12.40;99.90
11221;DHT22;8517;53.546;10.104;2023-03-20T02:44:49;12.30;99.90
11221;DHT22;8517;53.546;10.104;2023-03-20T02:47:20;12.30;99.90
11221;DHT22;8517;53.546;10.104;2023-03-20T02:49:53;12.30;99.90
11221;DHT22;8517;53.546;10.104;2023-03-20T02:52:27;12.20;99.90
11221;DHT22;8517;53.546;10.104;2023-03-20T02:55:04;12.30;99.90
11221;DHT22;8517;53.546;10.104;2023-03-20T02:57:42;12.20;99.90
11221;DHT22;8517;53.546;10.104;2023-03-20T03:00:13;12.20;99.90
11221;DHT22;8517;53.546;10.104;2023-03-20T03:02:46;12.20;99.90
11221;DHT22;8517;53.546;10.104;2023-03-20T03:05:17;12.20;99.90
11221;DHT22;8517;53.546;10.104;2023-03-20T03:07:49;12.10;99.90
11221;DHT22;8517;53.546;10.104;2023-03-20T03:10:21;12.10;99.90
11221;DHT22;8517;53.546;10.104;2023-03-20T03:12:51;12.10;99.90
11221;DHT22;8517;53.546;10.104;2023-03-20T03:15:24;12.10;99.90
11221;DHT22;8517;53.546;10.104;2023-03-20T03:17:52;12.00;99.90
11221;DHT22;8517;53.546;10.104;2023-03-20T03:20:22;12.00;99.90
11221;DHT22;8517;53.546;10.104;2023-03-20T03:22:50;12.00;99.90
11221;DHT22;8517;53.546;10.104;2023-03-20T03:25:18;11.90;99.90
11221;DHT22;8517;53.546;10.104;2023-03-20T03:27:49;11.90;99.90
11221;DHT22;8517;53.546;10.104;2023-03-20T03:30:24;11.80;99.90
11221;DHT22;8517;53.546;10.104;2023-03-20T03:33:07;11.80;99.90
11221;DHT22;8517;53.546;10.104;2023-03-20T03:35:35;11.70;99.90
11221;DHT22;8517;53.546;10.104;2023-03-20T03:38:06;11.70;99.90
11221;DHT22;8517;53.546;10.104;2023-03-20T03:40:42;11.70;99.90
11221;DHT22;8517;53.546;10.104;2023-03-20T03:43:15;11.70;99.90
11221;DHT22;8517;53.546;10.104;2023-03-20T03:45:47;11.70;99.90
11221;DHT22;8517;53.546;10.104;2023-03-20T03:48:17;11.70;99.90
11221;DHT22;8517;53.546;10.104;2023-03-20T03:50:48;11.80;99.90
11221;DHT22;8517;53.546;10.104;2023-03-20T03:53:19;11.70;99.90
11221;DHT22;8517;53.546;10.104;2023-03-20T03:55:50;11.70;99.90
11221;DHT22;8517;53.546;10.104;2023-03-20T03:58:20;11.80;99.90
11221;DHT22;8517;53.546;10.104;2023-03-20T04:00:50;11.80;99.90
11221;DHT22;8517;53.546;10.104;2023-03-20T04:03:19;11.70;99.90
11221;DHT22;8517;53.546;10.104;2023-03-20T04:05:49;11.80;99.90
11221;DHT22;8517;53.546;10.104;2023-03-20T04:08:17;11.80;99.90
11221;DHT22;8517;53.546;10.104;2023-03-20T04:10:44;11.70;99.90
11221;DHT22;8517;53.546;10.104;2023-03-20T04:13:12;11.70;99.90
11221;DHT22;8517;53.546;10.104;2023-03-20T04:15:40;11.80;99.90
11221;DHT22;8517;53.546;10.104;2023-03-20T04:18:08;11.70;99.90
11221;DHT22;8517;53.546;10.104;2023-03-20T04:20:40;11.70;99.90
11221;DHT22;8517;53.546;10.104;2023-03-20T04:23:07;11.60;99.90
11221;DHT22;8517;53.546;10.104;2023-03-20T04:25:33;11.60;99.90
11221;DHT22;8517;53.546;10.104;2023-03-20T04:28:00;11.60;99.90
11221;DHT22;8517;53.546;10.104;2023-03-20T04:30:28;11.50;99.90
11221;DHT22;8517;53.546;10.104;2023-03-20T04:32:55;11.50;99.90
11221;DHT22;8517;53.546;10.104;2023-03-20T04:35:22;11.50;99.90
11221;DHT22;8517;53.546;10.104;2023-03-20T04:37:49;11.50;99.90
11221;DHT22;8517;53.546;10.104;2023-03-20T04:40:16;11.50;99.90
11221;DHT22;8517;53.546;10.104;2023-03-20T04:42:43;11.50;99.90
11221;DHT22;8517;53.546;10.104;2023-03-20T04:45:10;11.40;99.90
11221;DHT22;8517;53.546;10.104;2023-03-20T04:47:38;11.40;99.90
11221;DHT22;8517;53.546;10.104;2023-03-20T04:50:05;11.40;99.90
11221;DHT22;8517;53.546;10.104;2023-03-20T04:52:32;11.40;99.90
11221;DHT22;8517;53.546;10.104;2023-03-20T04:54:59;11.30;99.90
11221;DHT22;8517;53.546;10.104;2023-03-20T04:57:26;11.40;99.90
11221;DHT22;8517;53.546;10.104;2023-03-20T04:59:53;11.40;99.90
11221;DHT22;8517;53.546;10.104;2023-03-20T05:02:20;11.30;99.90
11221;DHT22;8517;53.546;10.104;2023-03-20T05:04:48;11.30;99.90
11221;DHT22;8517;53.546;10.104;2023-03-20T05:07:15;11.40;99.90
11221;DHT22;8517;53.546;10.104;2023-03-20T05:09:42;11.30;99.90
11221;DHT22;8517;53.546;10.104;2023-03-20T05:12:09;11.30;99.90
11221;DHT22;8517;53.546;10.104;2023-03-20T05:14:36;11.30;99.90
11221;DHT22;8517;53.546;10.104;2023-03-20T05:17:03;11.30;99.90
11221;DHT22;8517;53.546;10.104;2023-03-20T05:19:30;11.30;99.90
11221;DHT22;8517;53.546;10.104;2023-03-20T05:21:58;11.20;99.90
11221;DHT22;8517;53.546;10.104;2023-03-20T05:24:25;11.30;99.90
11221;DHT22;8517;53.546;10.104;2023-03-20T05:26:53;11.20;99.90
11221;DHT22;8517;53.546;10.104;2023-03-20T05:29:20;11.20;99.90
11221;DHT22;8517;53.546;10.104;2023-03-20T05:31:47;11.20;99.90
11221;DHT22;8517;53.546;10.104;2023-03-20T05:34:14;11.30;99.90
11221;DHT22;8517;53.546;10.104;2023-03-20T05:36:40;11.20;99.90
11221;DHT22;8517;53.546;10.104;2023-03-20T05:39:09;11.20;99.90
11221;DHT22;8517;53.546;10.104;2023-03-20T05:41:36;11.20;99.90
11221;DHT22;8517;53.546;10.104;2023-03-20T05:44:02;11.20;99.90
11221;DHT22;8517;53.546;10.104;2023-03-20T05:46:29;11.20;99.90
11221;DHT22;8517;53.546;10.104;2023-03-20T05:48:56;11.30;99.90
11221;DHT22;8517;53.546;10.104;2023-03-20T05:51:23;11.20;99.90
11221;DHT22;8517;53.546;10.104;2023-03-20T05:53:50;11.30;99.90
11221;DHT22;8517;53.546;10.104;2023-03-20T05:56:18;11.30;99.90
11221;DHT22;8517;53.546;10.104;2023-03-20T05:58:45;11.30;99.90
11221;DHT22;8517;53.546;10.104;2023-03-20T06:01:12;11.30;99.90
11221;DHT22;8517;53.546;10.104;2023-03-20T06:03:40;11.30;99.90
11221;DHT22;8517;53.546;10.104;2023-03-20T06:06:08;11.30;99.90
11221;DHT22;8517;53.546;10.104;2023-03-20T06:08:35;11.20;99.90
11221;DHT22;8517;53.546;10.104;2023-03-20T06:11:02;11.20;99.90
11221;DHT22;8517;53.546;10.104;2023-03-20T06:13:30;11.20;99.90
11221;DHT22;8517;53.546;10.104;2023-03-20T06:15:57;11.20;99.90
11221;DHT22;8517;53.546;10.104;2023-03-20T06:18:24;11.20;99.90
11221;DHT22;8517;53.546;10.104;2023-03-20T06:20:51;11.20;99.90
11221;DHT22;8517;53.546;10.104;2023-03-20T06:23:19;11.20;99.90
11221;DHT22;8517;53.546;10.104;2023-03-20T06:25:46;11.20;99.90
11221;DHT22;8517;53.546;10.104;2023-03-20T06:28:13;11.20;99.90
11221;DHT22;8517;53.546;10.104;2023-03-20T06:30:41;11.20;99.90
11221;DHT22;8517;53.546;10.104;2023-03-20T06:33:09;11.20;99.90
11221;DHT22;8517;53.546;10.104;2023-03-20T06:35:36;11.20;99.90
11221;DHT22;8517;53.546;10.104;2023-03-20T06:38:03;11.20;99.90
11221;DHT22;8517;53.546;10.104;2023-03-20T06:40:35;11.20;99.90
11221;DHT22;8517;53.546;10.104;2023-03-20T06:43:28;11.30;99.90
11221;DHT22;8517;53.546;10.104;2023-03-20T06:46:11;11.20;99.90
11221;DHT22;8517;53.546;10.104;2023-03-20T06:48:41;11.30;99.90
11221;DHT22;8517;53.546;10.104;2023-03-20T06:51:31;11.30;99.90
11221;DHT22;8517;53.546;10.104;2023-03-20T06:54:11;11.30;99.90
11221;DHT22;8517;53.546;10.104;2023-03-20T06:56:46;11.30;99.90
11221;DHT22;8517;53.546;10.104;2023-03-20T06:59:13;11.40;99.90
11221;DHT22;8517;53.546;10.104;2023-03-20T07:01:41;11.40;99.90
11221;DHT22;8517;53.546;10.104;2023-03-20T07:04:09;11.40;99.90
11221;DHT22;8517;53.546;10.104;2023-03-20T07:06:36;11.50;99.90
11221;DHT22;8517;53.546;10.104;2023-03-20T07:09:06;11.50;99.90
11221;DHT22;8517;53.546;10.104;2023-03-20T07:11:33;11.50;99.90
11221;DHT22;8517;53.546;10.104;2023-03-20T07:14:00;11.50;99.90
11221;DHT22;8517;53.546;10.104;2023-03-20T07:16:30;11.60;99.90
11221;DHT22;8517;53.546;10.104;2023-03-20T07:18:58;11.60;99.90
11221;DHT22;8517;53.546;10.104;2023-03-20T07:21:27;11.60;99.90
11221;DHT22;8517;53.546;10.104;2023-03-20T07:23:56;11.60;99.90
11221;DHT22;8517;53.546;10.104;2023-03-20T07:26:23;11.70;99.90
11221;DHT22;8517;53.546;10.104;2023-03-20T07:28:52;11.60;99.90
11221;DHT22;8517;53.546;10.104;2023-03-20T07:31:20;11.70;99.90
11221;DHT22;8517;53.546;10.104;2023-03-20T07:33:47;11.70;99.90
11221;DHT22;8517;53.546;10.104;2023-03-20T07:36:15;11.70;99.90
11221;DHT22;8517;53.546;10.104;2023-03-20T07:38:42;11.80;99.90
11221;DHT22;8517;53.546;10.104;2023-03-20T07:41:09;11.80;99.90
11221;DHT22;8517;53.546;10.104;2023-03-20T07:43:37;11.90;99.90
11221;DHT22;8517;53.546;10.104;2023-03-20T07:46:06;11.90;99.90
11221;DHT22;8517;53.546;10.104;2023-03-20T07:48:34;11.90;99.90
11221;DHT22;8517;53.546;10.104;2023-03-20T07:51:01;11.90;99.90
11221;DHT22;8517;53.546;10.104;2023-03-20T07:53:30;11.90;99.90
11221;DHT22;8517;53.546;10.104;2023-03-20T07:55:56;11.90;99.90
11221;DHT22;8517;53.546;10.104;2023-03-20T07:58:23;11.90;99.90
11221;DHT22;8517;53.546;10.104;2023-03-20T08:00:51;11.90;99.90
11221;DHT22;8517;53.546;10.104;2023-03-20T08:03:22;11.90;99.90
11221;DHT22;8517;53.546;10.104;2023-03-20T08:05:50;11.90;99.90
11221;DHT22;8517;53.546;10.104;2023-03-20T08:08:17;11.90;99.90
11221;DHT22;8517;53.546;10.104;2023-03-20T08:10:46;11.90;99.90
11221;DHT22;8517;53.546;10.104;2023-03-20T08:13:14;11.90;99.90
11221;DHT22;8517;53.546;10.104;2023-03-20T08:15:43;11.90;99.90
11221;DHT22;8517;53.546;10.104;2023-03-20T08:18:10;11.90;99.90
11221;DHT22;8517;53.546;10.104;2023-03-20T08:20:39;11.90;99.90
11221;DHT22;8517;53.546;10.104;2023-03-20T08:23:05;11.90;99.90
11221;DHT22;8517;53.546;10.104;2023-03-20T08:25:32;11.90;99.90
11221;DHT22;8517;53.546;10.104;2023-03-20T08:28:01;11.90;99.90
11221;DHT22;8517;53.546;10.104;2023-03-20T08:30:28;11.90;99.90
11221;DHT22;8517;53.546;10.104;2023-03-20T08:32:55;11.90;99.90
11221;DHT22;8517;53.546;10.104;2023-03-20T08:35:23;11.90;99.90
11221;DHT22;8517;53.546;10.104;2023-03-20T08:37:50;11.90;99.90
11221;DHT22;8517;53.546;10.104;2023-03-20T08:40:17;11.90;99.90
11221;DHT22;8517;53.546;10.104;2023-03-20T08:42:44;11.90;99.90
11221;DHT22;8517;53.546;10.104;2023-03-20T08:45:13;11.90;99.90
11221;DHT22;8517;53.546;10.104;2023-03-20T08:47:40;11.90;99.90
11221;DHT22;8517;53.546;10.104;2023-03-20T08:50:13;11.90;99.90
11221;DHT22;8517;53.546;10.104;2023-03-20T08:52:40;11.90;99.90
11221;DHT22;8517;53.546;10.104;2023-03-20T08:55:09;11.80;99.90
11221;DHT22;8517;53.546;10.104;2023-03-20T08:57:36;11.80;99.90
11221;DHT22;8517;53.546;10.104;2023-03-20T09:00:04;11.80;99.90
11221;DHT22;8517;53.546;10.104;2023-03-20T09:02:33;11.80;99.90
11221;DHT22;8517;53.546;10.104;2023-03-20T09:05:00;11.80;99.90
11221;DHT22;8517;53.546;10.104;2023-03-20T09:07:27;11.90;99.90
11221;DHT22;8517;53.546;10.104;2023-03-20T09:09:54;11.90;99.90
11221;DHT22;8517;53.546;10.104;2023-03-20T09:12:21;12.00;99.90
11221;DHT22;8517;53.546;10.104;2023-03-20T09:14:48;12.10;99.90
11221;DHT22;8517;53.546;10.104;2023-03-20T09:17:17;12.10;99.90
11221;DHT22;8517;53.546;10.104;2023-03-20T09:19:46;12.10;99.90
11221;DHT22;8517;53.546;10.104;2023-03-20T09:22:13;12.10;99.90
11221;DHT22;8517;53.546;10.104;2023-03-20T09:24:45;12.10;99.90
11221;DHT22;8517;53.546;10.104;2023-03-20T09:27:12;12.10;99.90
11221;DHT22;8517;53.546;10.104;2023-03-20T09:29:39;12.10;99.90
11221;DHT22;8517;53.546;10.104;2023-03-20T09:32:11;12.20;99.90
11221;DHT22;8517;53.546;10.104;2023-03-20T09:34:40;12.10;99.90
11221;DHT22;8517;53.546;10.104;2023-03-20T09:37:08;12.20;99.90
11221;DHT22;8517;53.546;10.104;2023-03-20T09:39:35;12.10;99.90
11221;DHT22;8517;53.546;10.104;2023-03-20T09:42:07;12.10;99.90
11221;DHT22;8517;53.546;10.104;2023-03-20T09:44:48;12.10;99.90
11221;DHT22;8517;53.546;10.104;2023-03-20T09:47:24;12.20;99.90
11221;DHT22;8517;53.546;10.104;2023-03-20T09:50:10;12.20;99.90
11221;DHT22;8517;53.546;10.104;2023-03-20T09:52:43;12.30;99.90
11221;DHT22;8517;53.546;10.104;2023-03-20T09:55:14;12.40;99.90
11221;DHT22;8517;53.546;10.104;2023-03-20T09:57:44;12.50;99.90
11221;DHT22;8517;53.546;10.104;2023-03-20T10:00:14;12.50;99.90
11221;DHT22;8517;53.546;10.104;2023-03-20T10:02:47;12.60;99.90
11221;DHT22;8517;53.546;10.104;2023-03-20T10:05:20;12.60;99.90
11221;DHT22;8517;53.546;10.104;2023-03-20T10:07:54;12.60;99.90
11221;DHT22;8517;53.546;10.104;2023-03-20T10:10:26;12.70;99.90
11221;DHT22;8517;53.546;10.104;2023-03-20T10:13:02;12.70;99.90
11221;DHT22;8517;53.546;10.104;2023-03-20T10:15:42;12.70;99.90
11221;DHT22;8517;53.546;10.104;2023-03-20T10:18:17;12.70;99.90
11221;DHT22;8517;53.546;10.104;2023-03-20T10:20:53;12.70;99.90
11221;DHT22;8517;53.546;10.104;2023-03-20T10:23:26;12.70;99.90
11221;DHT22;8517;53.546;10.104;2023-03-20T10:26:01;12.60;99.90
11221;DHT22;8517;53.546;10.104;2023-03-20T10:28:33;12.60;99.90
11221;DHT22;8517;53.546;10.104;2023-03-20T10:31:34;12.60;99.90
11221;DHT22;8517;53.546;10.104;2023-03-20T10:34:25;12.70;99.90
11221;DHT22;8517;53.546;10.104;2023-03-20T10:37:03;12.70;99.90
11221;DHT22;8517;53.546;10.104;2023-03-20T10:39:48;12.70;99.90
11221;DHT22;8517;53.546;10.104;2023-03-20T10:42:20;12.70;99.90
11221;DHT22;8517;53.546;10.104;2023-03-20T10:44:52;12.70;99.90
11221;DHT22;8517;53.546;10.104;2023-03-20T10:47:24;12.70;99.90
11221;DHT22;8517;53.546;10.104;2023-03-20T10:49:56;12.70;99.90
11221;DHT22;8517;53.546;10.104;2023-03-20T10:52:26;12.70;99.90
11221;DHT22;8517;53.546;10.104;2023-03-20T10:54:57;12.60;99.90
11221;DHT22;8517;53.546;10.104;2023-03-20T10:57:28;12.60;99.90
11221;DHT22;8517;53.546;10.104;2023-03-20T11:00:00;12.60;99.90
11221;DHT22;8517;53.546;10.104;2023-03-20T11:02:28;12.60;99.90
11221;DHT22;8517;53.546;10.104;2023-03-20T11:04:55;12.70;99.90
11221;DHT22;8517;53.546;10.104;2023-03-20T11:07:30;12.70;99.90
11221;DHT22;8517;53.546;10.104;2023-03-20T11:10:12;12.70;99.90
11221;DHT22;8517;53.546;10.104;2023-03-20T11:12:43;12.80;99.90
11221;DHT22;8517;53.546;10.104;2023-03-20T11:21:45;13.00;99.90
11221;DHT22;8517;53.546;10.104;2023-03-20T11:24:25;13.00;99.90
11221;DHT22;8517;53.546;10.104;2023-03-20T11:27:13;13.00;99.90
11221;DHT22;8517;53.546;10.104;2023-03-20T11:29:46;13.10;99.90
11221;DHT22;8517;53.546;10.104;2023-03-20T11:32:21;13.20;99.90
11221;DHT22;8517;53.546;10.104;2023-03-20T11:34:52;13.20;99.90
11221;DHT22;8517;53.546;10.104;2023-03-20T11:37:24;13.20;99.90
11221;DHT22;8517;53.546;10.104;2023-03-20T11:39:57;13.20;99.90
11221;DHT22;8517;53.546;10.104;2023-03-20T11:42:29;13.20;99.90
11221;DHT22;8517;53.546;10.104;2023-03-20T11:44:58;13.20;99.90
11221;DHT22;8517;53.546;10.104;2023-03-20T11:47:27;13.20;99.90
11221;DHT22;8517;53.546;10.104;2023-03-20T11:49:55;13.10;99.90
11221;DHT22;8517;53.546;10.104;2023-03-20T11:52:24;13.10;99.90
11221;DHT22;8517;53.546;10.104;2023-03-20T11:54:55;13.10;99.90
11221;DHT22;8517;53.546;10.104;2023-03-20T11:57:31;13.00;99.90
11221;DHT22;8517;53.546;10.104;2023-03-20T12:00:02;13.00;99.90
11221;DHT22;8517;53.546;10.104;2023-03-20T12:05:36;13.00;99.90
11221;DHT22;8517;53.546;10.104;2023-03-20T12:08:08;13.00;99.90
11221;DHT22;8517;53.546;10.104;2023-03-20T12:10:41;13.00;99.90
11221;DHT22;8517;53.546;10.104;2023-03-20T12:13:15;13.00;99.90
11221;DHT22;8517;53.546;10.104;2023-03-20T12:15:45;13.00;99.90
11221;DHT22;8517;53.546;10.104;2023-03-20T12:18:18;13.00;99.90
11221;DHT22;8517;53.546;10.104;2023-03-20T12:20:57;13.00;99.90
11221;DHT22;8517;53.546;10.104;2023-03-20T12:23:31;13.00;99.90
11221;DHT22;8517;53.546;10.104;2023-03-20T12:26:02;13.00;99.90
11221;DHT22;8517;53.546;10.104;2023-03-20T12:28:39;13.00;99.90
11221;DHT22;8517;53.546;10.104;2023-03-20T12:31:21;13.00;99.90
11221;DHT22;8517;53.546;10.104;2023-03-20T12:33:52;13.00;99.90
11221;DHT22;8517;53.546;10.104;2023-03-20T12:36:28;13.00;99.90
11221;DHT22;8517;53.546;10.104;2023-03-20T12:38:55;13.00;99.90
11221;DHT22;8517;53.546;10.104;2023-03-20T12:41:25;13.00;99.90
11221;DHT22;8517;53.546;10.104;2023-03-20T12:44:21;13.10;99.90
11221;DHT22;8517;53.546;10.104;2023-03-20T12:47:04;13.10;99.90
11221;DHT22;8517;53.546;10.104;2023-03-20T12:49:43;13.10;99.90
11221;DHT22;8517;53.546;10.104;2023-03-20T12:52:22;13.20;99.90
11221;DHT22;8517;53.546;10.104;2023-03-20T12:55:17;13.20;99.90
11221;DHT22;8517;53.546;10.104;2023-03-20T12:57:58;13.30;99.90
11221;DHT22;8517;53.546;10.104;2023-03-20T13:00:32;13.40;99.90
11221;DHT22;8517;53.546;10.104;2023-03-20T13:03:10;13.40;99.90
11221;DHT22;8517;53.546;10.104;2023-03-20T13:05:47;13.50;99.90
11221;DHT22;8517;53.546;10.104;2023-03-20T13:08:47;13.60;99.90
11221;DHT22;8517;53.546;10.104;2023-03-20T13:11:24;13.70;99.90
11221;DHT22;8517;53.546;10.104;2023-03-20T13:13:57;13.80;99.90
11221;DHT22;8517;53.546;10.104;2023-03-20T13:16:36;13.80;99.90
11221;DHT22;8517;53.546;10.104;2023-03-20T13:19:11;13.90;99.90
11221;DHT22;8517;53.546;10.104;2023-03-20T13:21:46;14.00;99.90
11221;DHT22;8517;53.546;10.104;2023-03-20T13:24:31;14.00;99.90
11221;DHT22;8517;53.546;10.104;2023-03-20T13:27:07;14.00;99.90
11221;DHT22;8517;53.546;10.104;2023-03-20T13:29:43;14.10;99.90
11221;DHT22;8517;53.546;10.104;2023-03-20T13:32:21;14.00;99.90
11221;DHT22;8517;53.546;10.104;2023-03-20T13:35:05;14.00;99.90
11221;DHT22;8517;53.546;10.104;2023-03-20T13:37:37;14.00;99.90
11221;DHT22;8517;53.546;10.104;2023-03-20T13:40:13;14.00;99.90
11221;DHT22;8517;53.546;10.104;2023-03-20T13:42:48;13.90;99.90
11221;DHT22;8517;53.546;10.104;2023-03-20T13:45:26;13.90;99.90
11221;DHT22;8517;53.546;10.104;2023-03-20T13:47:57;13.90;99.90
11221;DHT22;8517;53.546;10.104;2023-03-20T13:50:33;13.80;99.90
11221;DHT22;8517;53.546;10.104;2023-03-20T13:53:07;13.80;99.90
11221;DHT22;8517;53.546;10.104;2023-03-20T13:55:43;13.80;99.90
11221;DHT22;8517;53.546;10.104;2023-03-20T14:01:22;13.70;99.90
11221;DHT22;8517;53.546;10.104;2023-03-20T14:03:52;13.60;99.90
11221;DHT22;8517;53.546;10.104;2023-03-20T14:06:48;13.60;99.90
11221;DHT22;8517;53.546;10.104;2023-03-20T14:09:27;13.60;99.90
11221;DHT22;8517;53.546;10.104;2023-03-20T14:11:55;13.50;99.90
11221;DHT22;8517;53.546;10.104;2023-03-20T14:14:26;13.50;99.90
11221;DHT22;8517;53.546;10.104;2023-03-20T14:17:02;13.50;99.90
11221;DHT22;8517;53.546;10.104;2023-03-20T14:19:35;13.50;99.90
11221;DHT22;8517;53.546;10.104;2023-03-20T14:22:03;13.40;99.90
11221;DHT22;8517;53.546;10.104;2023-03-20T14:24:34;13.50;99.90
11221;DHT22;8517;53.546;10.104;2023-03-20T14:27:02;13.50;99.90
11221;DHT22;8517;53.546;10.104;2023-03-20T14:29:35;13.50;99.90
11221;DHT22;8517;53.546;10.104;2023-03-20T14:32:21;13.50;99.90
11221;DHT22;8517;53.546;10.104;2023-03-20T14:34:52;13.50;99.90
11221;DHT22;8517;53.546;10.104;2023-03-20T14:37:29;13.50;99.90
11221;DHT22;8517;53.546;10.104;2023-03-20T14:40:12;13.50;99.90
11221;DHT22;8517;53.546;10.104;2023-03-20T14:42:48;13.50;99.90
11221;DHT22;8517;53.546;10.104;2023-03-20T14:45:28;13.50;99.90
11221;DHT22;8517;53.546;10.104;2023-03-20T14:48:01;13.50;99.90
11221;DHT22;8517;53.546;10.104;2023-03-20T14:50:42;13.50;99.90
11221;DHT22;8517;53.546;10.104;2023-03-20T14:53:19;13.50;99.90
11221;DHT22;8517;53.546;10.104;2023-03-20T14:55:49;13.50;99.90
11221;DHT22;8517;53.546;10.104;2023-03-20T14:58:44;13.50;99.90
11221;DHT22;8517;53.546;10.104;2023-03-20T15:01:17;13.50;99.90
11221;DHT22;8517;53.546;10.104;2023-03-20T15:03:54;13.50;99.90
11221;DHT22;8517;53.546;10.104;2023-03-20T15:06:42;13.50;99.90
11221;DHT22;8517;53.546;10.104;2023-03-20T15:09:10;13.50;99.90
11221;DHT22;8517;53.546;10.104;2023-03-20T15:11:40;13.50;99.90
11221;DHT22;8517;53.546;10.104;2023-03-20T15:14:19;13.40;99.90
11221;DHT22;8517;53.546;10.104;2023-03-20T15:16:47;13.40;99.90
11221;DHT22;8517;53.546;10.104;2023-03-20T15:19:24;13.40;99.90
11221;DHT22;8517;53.546;10.104;2023-03-20T15:21:53;13.40;99.90
11221;DHT22;8517;53.546;10.104;2023-03-20T15:24:21;13.30;99.90
11221;DHT22;8517;53.546;10.104;2023-03-20T15:26:52;13.30;99.90
11221;DHT22;8517;53.546;10.104;2023-03-20T15:29:21;13.30;99.90
11221;DHT22;8517;53.546;10.104;2023-03-20T15:31:53;13.30;99.90
11221;DHT22;8517;53.546;10.104;2023-03-20T15:34:25;13.30;99.90
11221;DHT22;8517;53.546;10.104;2023-03-20T15:36:57;13.30;99.90
11221;DHT22;8517;53.546;10.104;2023-03-20T15:39:26;13.30;99.90
11221;DHT22;8517;53.546;10.104;2023-03-20T15:41:55;13.30;99.90
11221;DHT22;8517;53.546;10.104;2023-03-20T15:44:35;13.30;99.90
11221;DHT22;8517;53.546;10.104;2023-03-20T15:48:39;13.30;99.90
11221;DHT22;8517;53.546;10.104;2023-03-20T15:50:34;13.20;99.90
11221;DHT22;8517;53.546;10.104;2023-03-20T15:53:17;13.10;99.90
11221;DHT22;8517;53.546;10.104;2023-03-20T15:56:07;13.20;99.90
11221;DHT22;8517;53.546;10.104;2023-03-20T15:58:35;13.10;99.90
11221;DHT22;8517;53.546;10.104;2023-03-20T16:01:03;13.10;99.90
11221;DHT22;8517;53.546;10.104;2023-03-20T16:03:31;13.00;99.90
11221;DHT22;8517;53.546;10.104;2023-03-20T16:06:01;13.00;99.90
11221;DHT22;8517;53.546;10.104;2023-03-20T16:08:31;13.00;99.90
11221;DHT22;8517;53.546;10.104;2023-03-20T16:11:02;13.00;99.90
11221;DHT22;8517;53.546;10.104;2023-03-20T16:13:32;13.00;99.90
11221;DHT22;8517;53.546;10.104;2023-03-20T16:16:00;13.00;99.90
11221;DHT22;8517;53.546;10.104;2023-03-20T16:18:31;13.00;99.90